sensor_id;sensor_type;location;lat;lon;timestamp;temperature;humidity
67868;SHT31;54672;46.096;14.470;2022-07-29T00:00:11;19.69;76.93
67868;SHT31;54672;46.096;14.470;2022-07-29T00:02:36;19.70;76.91
67868;SHT31;54672;46.096;14.470;2022-07-29T00:05:03;19.67;76.81
67868;SHT31;54672;46.096;14.470;2022-07-29T00:07:28;19.62;77.15
67868;SHT31;54672;46.096;14.470;2022-07-29T00:09:53;19.56;77.39
67868;SHT31;54672;46.096;14.470;2022-07-29T00:12:20;19.56;77.44
67868;SHT31;54672;46.096;14.470;2022-07-29T00:14:46;19.49;77.67
67868;SHT31;54672;46.096;14.470;2022-07-29T00:17:11;19.48;78.02
67868;SHT31;54672;46.096;14.470;2022-07-29T00:19:37;19.48;78.30
67868;SHT31;54672;46.096;14.470;2022-07-29T00:22:02;19.48;78.23
67868;SHT31;54672;46.096;14.470;2022-07-29T00:24:28;19.45;78.26
67868;SHT31;54672;46.096;14.470;2022-07-29T00:26:53;19.43;78.13
67868;SHT31;54672;46.096;14.470;2022-07-29T00:29:19;19.41;78.38
67868;SHT31;54672;46.096;14.470;2022-07-29T00:31:45;19.39;78.82
67868;SHT31;54672;46.096;14.470;2022-07-29T00:34:10;19.36;78.95
67868;SHT31;54672;46.096;14.470;2022-07-29T00:36:56;19.33;78.85
67868;SHT31;54672;46.096;14.470;2022-07-29T00:39:22;19.25;79.25
67868;SHT31;54672;46.096;14.470;2022-07-29T00:41:47;19.18;79.61
67868;SHT31;54672;46.096;14.470;2022-07-29T00:44:13;19.10;79.82
67868;SHT31;54672;46.096;14.470;2022-07-29T00:46:39;19.08;79.62
67868;SHT31;54672;46.096;14.470;2022-07-29T00:49:04;19.07;79.52
67868;SHT31;54672;46.096;14.470;2022-07-29T00:51:30;19.02;79.54
67868;SHT31;54672;46.096;14.470;2022-07-29T00:53:56;19.00;79.69
67868;SHT31;54672;46.096;14.470;2022-07-29T00:56:22;19.01;79.77
67868;SHT31;54672;46.096;14.470;2022-07-29T00:58:48;18.93;79.96
67868;SHT31;54672;46.096;14.470;2022-07-29T01:01:15;18.85;80.47
67868;SHT31;54672;46.096;14.470;2022-07-29T01:03:41;18.78;80.97
67868;SHT31;54672;46.096;14.470;2022-07-29T01:06:06;18.73;80.94
67868;SHT31;54672;46.096;14.470;2022-07-29T01:08:32;18.73;81.04
67868;SHT31;54672;46.096;14.470;2022-07-29T01:10:59;18.67;81.18
67868;SHT31;54672;46.096;14.470;2022-07-29T01:13:25;18.63;81.43
67868;SHT31;54672;46.096;14.470;2022-07-29T01:16:00;18.60;81.48
67868;SHT31;54672;46.096;14.470;2022-07-29T01:18:32;18.59;81.77
67868;SHT31;54672;46.096;14.470;2022-07-29T01:32:41;18.63;81.62
67868;SHT31;54672;46.096;14.470;2022-07-29T01:37:38;18.44;82.26
67868;SHT31;54672;46.096;14.470;2022-07-29T01:40:05;18.28;82.92
67868;SHT31;54672;46.096;14.470;2022-07-29T01:42:43;18.23;83.24
67868;SHT31;54672;46.096;14.470;2022-07-29T01:50:34;18.10;83.83
67868;SHT31;54672;46.096;14.470;2022-07-29T01:53:04;18.12;83.88
67868;SHT31;54672;46.096;14.470;2022-07-29T01:55:34;18.03;84.02
67868;SHT31;54672;46.096;14.470;2022-07-29T01:58:00;17.98;84.34
67868;SHT31;54672;46.096;14.470;2022-07-29T02:00:27;18.03;83.84
67868;SHT31;54672;46.096;14.470;2022-07-29T02:02:53;17.99;83.95
67868;SHT31;54672;46.096;14.470;2022-07-29T02:05:21;17.84;84.38
67868;SHT31;54672;46.096;14.470;2022-07-29T02:07:49;17.79;84.65
67868;SHT31;54672;46.096;14.470;2022-07-29T02:10:19;17.72;84.98
67868;SHT31;54672;46.096;14.470;2022-07-29T02:12:46;17.70;85.17
67868;SHT31;54672;46.096;14.470;2022-07-29T02:15:14;17.67;85.21
67868;SHT31;54672;46.096;14.470;2022-07-29T02:17:45;17.65;85.27
67868;SHT31;54672;46.096;14.470;2022-07-29T02:20:14;17.63;85.65
67868;SHT31;54672;46.096;14.470;2022-07-29T02:22:41;17.61;85.79
67868;SHT31;54672;46.096;14.470;2022-07-29T02:25:10;17.61;85.51
67868;SHT31;54672;46.096;14.470;2022-07-29T02:27:36;17.58;85.60
67868;SHT31;54672;46.096;14.470;2022-07-29T02:30:03;17.55;86.00
67868;SHT31;54672;46.096;14.470;2022-07-29T02:32:31;17.55;85.78
67868;SHT31;54672;46.096;14.470;2022-07-29T02:34:58;17.53;85.96
67868;SHT31;54672;46.096;14.470;2022-07-29T02:37:24;17.51;86.09
67868;SHT31;54672;46.096;14.470;2022-07-29T02:39:52;17.47;86.24
67868;SHT31;54672;46.096;14.470;2022-07-29T02:42:21;17.45;86.27
67868;SHT31;54672;46.096;14.470;2022-07-29T02:44:47;17.48;86.44
67868;SHT31;54672;46.096;14.470;2022-07-29T02:47:34;17.45;85.93
67868;SHT31;54672;46.096;14.470;2022-07-29T02:57:37;17.45;87.11
67868;SHT31;54672;46.096;14.470;2022-07-29T03:00:07;17.40;87.29
67868;SHT31;54672;46.096;14.470;2022-07-29T03:02:36;17.26;87.62
67868;SHT31;54672;46.096;14.470;2022-07-29T03:05:04;17.17;87.87
67868;SHT31;54672;46.096;14.470;2022-07-29T03:07:32;17.14;88.02
67868;SHT31;54672;46.096;14.470;2022-07-29T03:09:58;17.10;88.21
67868;SHT31;54672;46.096;14.470;2022-07-29T03:12:25;17.10;88.46
67868;SHT31;54672;46.096;14.470;2022-07-29T03:14:51;17.03;88.58
67868;SHT31;54672;46.096;14.470;2022-07-29T03:17:17;17.06;88.71
67868;SHT31;54672;46.096;14.470;2022-07-29T03:19:43;17.04;88.51
67868;SHT31;54672;46.096;14.470;2022-07-29T03:22:09;17.06;88.54
67868;SHT31;54672;46.096;14.470;2022-07-29T03:24:36;17.12;88.38
67868;SHT31;54672;46.096;14.470;2022-07-29T03:27:03;17.16;88.16
67868;SHT31;54672;46.096;14.470;2022-07-29T03:29:29;17.20;88.29
67868;SHT31;54672;46.096;14.470;2022-07-29T03:31:55;17.19;88.13
67868;SHT31;54672;46.096;14.470;2022-07-29T03:34:21;17.14;87.93
67868;SHT31;54672;46.096;14.470;2022-07-29T03:36:47;17.07;88.37
67868;SHT31;54672;46.096;14.470;2022-07-29T03:39:16;17.00;88.65
67868;SHT31;54672;46.096;14.470;2022-07-29T03:41:44;16.82;89.21
67868;SHT31;54672;46.096;14.470;2022-07-29T03:44:11;16.71;89.57
67868;SHT31;54672;46.096;14.470;2022-07-29T03:46:38;16.77;89.46
67868;SHT31;54672;46.096;14.470;2022-07-29T03:49:06;16.86;89.02
67868;SHT31;54672;46.096;14.470;2022-07-29T03:51:33;16.93;88.75
67868;SHT31;54672;46.096;14.470;2022-07-29T03:54:04;17.13;87.98
67868;SHT31;54672;46.096;14.470;2022-07-29T03:56:32;17.26;87.35
67868;SHT31;54672;46.096;14.470;2022-07-29T03:59:01;17.33;87.12
67868;SHT31;54672;46.096;14.470;2022-07-29T04:01:27;17.58;86.16
67868;SHT31;54672;46.096;14.470;2022-07-29T04:03:53;18.05;84.93
67868;SHT31;54672;46.096;14.470;2022-07-29T04:06:18;18.57;83.32
67868;SHT31;54672;46.096;14.470;2022-07-29T04:08:44;18.94;81.21
67868;SHT31;54672;46.096;14.470;2022-07-29T04:11:10;19.18;80.15
67868;SHT31;54672;46.096;14.470;2022-07-29T04:13:35;19.72;78.84
67868;SHT31;54672;46.096;14.470;2022-07-29T04:16:00;20.09;76.63
67868;SHT31;54672;46.096;14.470;2022-07-29T04:18:26;20.25;75.61
67868;SHT31;54672;46.096;14.470;2022-07-29T04:20:51;20.51;74.81
67868;SHT31;54672;46.096;14.470;2022-07-29T04:23:17;20.85;74.12
67868;SHT31;54672;46.096;14.470;2022-07-29T04:25:42;21.10;72.25
67868;SHT31;54672;46.096;14.470;2022-07-29T04:28:08;21.58;71.59
67868;SHT31;54672;46.096;14.470;2022-07-29T04:30:35;22.26;69.17
67868;SHT31;54672;46.096;14.470;2022-07-29T04:33:04;22.91;66.91
67868;SHT31;54672;46.096;14.470;2022-07-29T04:35:30;23.47;64.82
67868;SHT31;54672;46.096;14.470;2022-07-29T04:37:56;23.83;63.41
67868;SHT31;54672;46.096;14.470;2022-07-29T04:40:21;24.10;62.17
67868;SHT31;54672;46.096;14.470;2022-07-29T04:42:47;24.63;60.62
67868;SHT31;54672;46.096;14.470;2022-07-29T04:45:12;24.91;59.77
67868;SHT31;54672;46.096;14.470;2022-07-29T04:47:38;25.05;59.46
67868;SHT31;54672;46.096;14.470;2022-07-29T04:50:04;24.94;59.92
67868;SHT31;54672;46.096;14.470;2022-07-29T04:52:32;24.84;59.93
67868;SHT31;54672;46.096;14.470;2022-07-29T04:54:57;25.28;59.17
67868;SHT31;54672;46.096;14.470;2022-07-29T04:57:23;25.80;57.49
67868;SHT31;54672;46.096;14.470;2022-07-29T04:59:48;25.86;56.92
67868;SHT31;54672;46.096;14.470;2022-07-29T05:02:14;26.13;56.30
67868;SHT31;54672;46.096;14.470;2022-07-29T05:04:39;25.71;57.18
67868;SHT31;54672;46.096;14.470;2022-07-29T05:07:05;26.08;56.45
67868;SHT31;54672;46.096;14.470;2022-07-29T05:09:30;24.78;59.23
67868;SHT31;54672;46.096;14.470;2022-07-29T05:11:57;25.59;58.07
67868;SHT31;54672;46.096;14.470;2022-07-29T05:14:23;25.87;57.24
67868;SHT31;54672;46.096;14.470;2022-07-29T05:16:48;25.16;59.26
67868;SHT31;54672;46.096;14.470;2022-07-29T05:19:16;25.02;59.56
67868;SHT31;54672;46.096;14.470;2022-07-29T05:21:41;25.73;58.49
67868;SHT31;54672;46.096;14.470;2022-07-29T05:24:07;26.87;55.04
67868;SHT31;54672;46.096;14.470;2022-07-29T05:26:33;27.65;53.19
67868;SHT31;54672;46.096;14.470;2022-07-29T05:28:58;26.65;55.47
67868;SHT31;54672;46.096;14.470;2022-07-29T05:31:23;26.45;55.46
67868;SHT31;54672;46.096;14.470;2022-07-29T05:33:49;25.09;59.26
67868;SHT31;54672;46.096;14.470;2022-07-29T05:36:14;23.89;62.85
67868;SHT31;54672;46.096;14.470;2022-07-29T05:38:40;23.25;64.95
67868;SHT31;54672;46.096;14.470;2022-07-29T05:41:05;22.76;66.69
67868;SHT31;54672;46.096;14.470;2022-07-29T05:43:31;22.26;68.74
67868;SHT31;54672;46.096;14.470;2022-07-29T05:45:57;22.00;69.60
67868;SHT31;54672;46.096;14.470;2022-07-29T05:48:22;21.81;70.43
67868;SHT31;54672;46.096;14.470;2022-07-29T05:50:48;21.64;71.29
67868;SHT31;54672;46.096;14.470;2022-07-29T05:53:13;21.58;71.50
67868;SHT31;54672;46.096;14.470;2022-07-29T05:55:39;21.51;71.98
67868;SHT31;54672;46.096;14.470;2022-07-29T05:58:04;21.43;72.28
67868;SHT31;54672;46.096;14.470;2022-07-29T06:00:30;21.41;72.72
67868;SHT31;54672;46.096;14.470;2022-07-29T06:02:55;21.47;72.37
67868;SHT31;54672;46.096;14.470;2022-07-29T06:05:22;21.49;72.45
67868;SHT31;54672;46.096;14.470;2022-07-29T06:07:47;21.57;72.27
67868;SHT31;54672;46.096;14.470;2022-07-29T06:10:13;21.94;71.19
67868;SHT31;54672;46.096;14.470;2022-07-29T06:12:38;24.09;64.88
67868;SHT31;54672;46.096;14.470;2022-07-29T06:15:04;26.14;60.19
67868;SHT31;54672;46.096;14.470;2022-07-29T06:17:30;27.69;55.40
67868;SHT31;54672;46.096;14.470;2022-07-29T06:19:55;28.66;51.58
67868;SHT31;54672;46.096;14.470;2022-07-29T06:22:21;29.21;50.06
67868;SHT31;54672;46.096;14.470;2022-07-29T06:24:46;30.17;48.55
67868;SHT31;54672;46.096;14.470;2022-07-29T06:27:11;29.76;47.88
67868;SHT31;54672;46.096;14.470;2022-07-29T06:29:37;30.81;46.51
67868;SHT31;54672;46.096;14.470;2022-07-29T06:32:03;31.40;45.44
67868;SHT31;54672;46.096;14.470;2022-07-29T06:34:29;31.91;44.08
67868;SHT31;54672;46.096;14.470;2022-07-29T06:36:54;28.78;48.86
67868;SHT31;54672;46.096;14.470;2022-07-29T06:39:20;29.18;48.58
67868;SHT31;54672;46.096;14.470;2022-07-29T06:41:49;28.47;50.55
67868;SHT31;54672;46.096;14.470;2022-07-29T06:44:16;30.35;45.62
67868;SHT31;54672;46.096;14.470;2022-07-29T06:46:41;30.76;44.96
67868;SHT31;54672;46.096;14.470;2022-07-29T06:49:07;30.64;45.30
67868;SHT31;54672;46.096;14.470;2022-07-29T06:51:33;30.92;43.99
67868;SHT31;54672;46.096;14.470;2022-07-29T06:53:59;31.43;43.58
67868;SHT31;54672;46.096;14.470;2022-07-29T06:56:24;31.46;42.90
67868;SHT31;54672;46.096;14.470;2022-07-29T06:58:50;31.16;44.52
67868;SHT31;54672;46.096;14.470;2022-07-29T07:01:15;31.97;42.81
67868;SHT31;54672;46.096;14.470;2022-07-29T07:03:41;30.55;44.38
67868;SHT31;54672;46.096;14.470;2022-07-29T07:06:07;31.26;44.21
67868;SHT31;54672;46.096;14.470;2022-07-29T07:08:33;32.14;42.17
67868;SHT31;54672;46.096;14.470;2022-07-29T07:10:58;33.34;41.10
67868;SHT31;54672;46.096;14.470;2022-07-29T07:13:24;33.71;38.84
67868;SHT31;54672;46.096;14.470;2022-07-29T07:15:49;34.01;38.26
67868;SHT31;54672;46.096;14.470;2022-07-29T07:18:16;33.80;39.14
67868;SHT31;54672;46.096;14.470;2022-07-29T07:20:42;30.17;43.59
67868;SHT31;54672;46.096;14.470;2022-07-29T07:23:08;28.77;47.01
67868;SHT31;54672;46.096;14.470;2022-07-29T07:25:33;29.34;46.17
67868;SHT31;54672;46.096;14.470;2022-07-29T07:27:59;31.73;42.23
67868;SHT31;54672;46.096;14.470;2022-07-29T07:30:25;32.89;40.23
67868;SHT31;54672;46.096;14.470;2022-07-29T07:32:51;31.13;41.53
67868;SHT31;54672;46.096;14.470;2022-07-29T07:35:17;32.46;40.15
67868;SHT31;54672;46.096;14.470;2022-07-29T07:37:42;33.57;37.44
67868;SHT31;54672;46.096;14.470;2022-07-29T07:40:09;33.49;37.86
67868;SHT31;54672;46.096;14.470;2022-07-29T07:42:37;32.83;38.80
67868;SHT31;54672;46.096;14.470;2022-07-29T07:45:02;33.65;36.41
67868;SHT31;54672;46.096;14.470;2022-07-29T07:47:28;34.31;35.84
67868;SHT31;54672;46.096;14.470;2022-07-29T07:49:53;33.89;35.50
67868;SHT31;54672;46.096;14.470;2022-07-29T07:52:20;30.63;41.04
67868;SHT31;54672;46.096;14.470;2022-07-29T07:54:46;31.62;38.91
67868;SHT31;54672;46.096;14.470;2022-07-29T07:57:13;32.42;37.84
67868;SHT31;54672;46.096;14.470;2022-07-29T07:59:38;31.76;38.91
67868;SHT31;54672;46.096;14.470;2022-07-29T08:02:04;32.41;38.12
67868;SHT31;54672;46.096;14.470;2022-07-29T08:04:30;32.20;37.94
67868;SHT31;54672;46.096;14.470;2022-07-29T08:06:57;32.11;38.17
67868;SHT31;54672;46.096;14.470;2022-07-29T08:09:24;31.54;39.82
67868;SHT31;54672;46.096;14.470;2022-07-29T08:11:50;32.73;37.56
67868;SHT31;54672;46.096;14.470;2022-07-29T08:14:15;32.87;37.50
67868;SHT31;54672;46.096;14.470;2022-07-29T08:16:41;33.77;36.36
67868;SHT31;54672;46.096;14.470;2022-07-29T08:19:07;34.04;35.65
67868;SHT31;54672;46.096;14.470;2022-07-29T08:21:33;34.18;35.14
67868;SHT31;54672;46.096;14.470;2022-07-29T08:23:59;33.27;36.52
67868;SHT31;54672;46.096;14.470;2022-07-29T08:26:43;32.52;37.63
67868;SHT31;54672;46.096;14.470;2022-07-29T08:29:08;32.66;37.99
67868;SHT31;54672;46.096;14.470;2022-07-29T08:31:35;32.75;37.35
67868;SHT31;54672;46.096;14.470;2022-07-29T08:34:01;33.12;37.57
67868;SHT31;54672;46.096;14.470;2022-07-29T08:36:27;32.80;36.81
67868;SHT31;54672;46.096;14.470;2022-07-29T08:38:53;31.97;38.71
67868;SHT31;54672;46.096;14.470;2022-07-29T08:41:19;31.03;39.84
67868;SHT31;54672;46.096;14.470;2022-07-29T08:43:45;30.72;40.85
67868;SHT31;54672;46.096;14.470;2022-07-29T08:46:10;31.62;40.09
67868;SHT31;54672;46.096;14.470;2022-07-29T08:48:36;32.27;38.73
67868;SHT31;54672;46.096;14.470;2022-07-29T08:51:02;32.98;37.53
67868;SHT31;54672;46.096;14.470;2022-07-29T08:53:29;32.89;36.85
67868;SHT31;54672;46.096;14.470;2022-07-29T08:55:55;31.53;38.49
67868;SHT31;54672;46.096;14.470;2022-07-29T08:58:22;31.43;39.05
67868;SHT31;54672;46.096;14.470;2022-07-29T09:00:55;31.87;38.44
67868;SHT31;54672;46.096;14.470;2022-07-29T09:03:24;31.40;39.51
67868;SHT31;54672;46.096;14.470;2022-07-29T09:05:50;31.81;39.31
67868;SHT31;54672;46.096;14.470;2022-07-29T09:08:16;32.72;38.17
67868;SHT31;54672;46.096;14.470;2022-07-29T09:10:43;33.06;37.23
67868;SHT31;54672;46.096;14.470;2022-07-29T09:13:08;32.99;36.30
67868;SHT31;54672;46.096;14.470;2022-07-29T09:15:34;33.35;36.10
67868;SHT31;54672;46.096;14.470;2022-07-29T09:18:00;33.55;35.16
67868;SHT31;54672;46.096;14.470;2022-07-29T09:20:26;34.31;34.27
67868;SHT31;54672;46.096;14.470;2022-07-29T09:23:12;34.66;34.05
67868;SHT31;54672;46.096;14.470;2022-07-29T09:25:39;34.57;34.06
67868;SHT31;54672;46.096;14.470;2022-07-29T09:28:13;33.41;35.32
67868;SHT31;54672;46.096;14.470;2022-07-29T09:30:53;33.03;35.90
67868;SHT31;54672;46.096;14.470;2022-07-29T09:33:19;32.63;36.20
67868;SHT31;54672;46.096;14.470;2022-07-29T09:35:45;31.33;38.48
67868;SHT31;54672;46.096;14.470;2022-07-29T09:38:14;30.47;40.28
67868;SHT31;54672;46.096;14.470;2022-07-29T09:40:40;29.96;41.50
67868;SHT31;54672;46.096;14.470;2022-07-29T09:43:14;29.87;41.92
67868;SHT31;54672;46.096;14.470;2022-07-29T09:45:39;29.69;41.76
67868;SHT31;54672;46.096;14.470;2022-07-29T09:48:17;29.38;42.70
67868;SHT31;54672;46.096;14.470;2022-07-29T09:50:45;29.24;43.40
67868;SHT31;54672;46.096;14.470;2022-07-29T09:53:12;28.67;44.35
67868;SHT31;54672;46.096;14.470;2022-07-29T09:55:54;28.39;44.85
67868;SHT31;54672;46.096;14.470;2022-07-29T09:58:21;28.42;45.21
67868;SHT31;54672;46.096;14.470;2022-07-29T10:00:47;28.77;44.26
67868;SHT31;54672;46.096;14.470;2022-07-29T10:03:14;28.49;44.64
67868;SHT31;54672;46.096;14.470;2022-07-29T10:05:40;29.31;43.79
67868;SHT31;54672;46.096;14.470;2022-07-29T10:08:07;29.67;42.66
67868;SHT31;54672;46.096;14.470;2022-07-29T10:10:39;29.52;42.27
67868;SHT31;54672;46.096;14.470;2022-07-29T10:13:11;29.59;42.05
67868;SHT31;54672;46.096;14.470;2022-07-29T10:15:37;29.62;42.81
67868;SHT31;54672;46.096;14.470;2022-07-29T10:18:06;30.03;41.76
67868;SHT31;54672;46.096;14.470;2022-07-29T10:20:32;30.17;41.97
67868;SHT31;54672;46.096;14.470;2022-07-29T10:22:57;30.30;41.13
67868;SHT31;54672;46.096;14.470;2022-07-29T10:25:24;30.24;41.23
67868;SHT31;54672;46.096;14.470;2022-07-29T10:27:50;30.23;41.22
67868;SHT31;54672;46.096;14.470;2022-07-29T10:30:20;30.02;42.21
67868;SHT31;54672;46.096;14.470;2022-07-29T10:41:23;30.64;39.52
67868;SHT31;54672;46.096;14.470;2022-07-29T10:44:17;31.15;39.44
67868;SHT31;54672;46.096;14.470;2022-07-29T10:46:43;31.56;38.71
67868;SHT31;54672;46.096;14.470;2022-07-29T10:49:22;31.87;38.26
67868;SHT31;54672;46.096;14.470;2022-07-29T11:05:08;31.57;37.98
67868;SHT31;54672;46.096;14.470;2022-07-29T11:07:35;31.16;38.28
67868;SHT31;54672;46.096;14.470;2022-07-29T11:10:19;30.99;38.67
67868;SHT31;54672;46.096;14.470;2022-07-29T11:15:11;30.72;39.43
67868;SHT31;54672;46.096;14.470;2022-07-29T11:18:08;31.39;38.59
67868;SHT31;54672;46.096;14.470;2022-07-29T11:20:44;31.81;37.91
67868;SHT31;54672;46.096;14.470;2022-07-29T11:23:25;32.18;37.38
67868;SHT31;54672;46.096;14.470;2022-07-29T11:28:42;32.56;35.20
67868;SHT31;54672;46.096;14.470;2022-07-29T11:31:16;32.22;36.33
67868;SHT31;54672;46.096;14.470;2022-07-29T11:33:41;31.93;36.77
67868;SHT31;54672;46.096;14.470;2022-07-29T11:36:12;31.74;36.66
67868;SHT31;54672;46.096;14.470;2022-07-29T11:38:38;31.87;36.84
67868;SHT31;54672;46.096;14.470;2022-07-29T11:41:33;32.05;37.07
67868;SHT31;54672;46.096;14.470;2022-07-29T11:44:02;32.24;36.53
67868;SHT31;54672;46.096;14.470;2022-07-29T11:46:50;32.31;36.14
67868;SHT31;54672;46.096;14.470;2022-07-29T11:49:20;32.10;36.15
67868;SHT31;54672;46.096;14.470;2022-07-29T11:51:57;31.90;36.47
67868;SHT31;54672;46.096;14.470;2022-07-29T11:54:33;31.76;37.00
67868;SHT31;54672;46.096;14.470;2022-07-29T11:57:00;32.00;36.74
67868;SHT31;54672;46.096;14.470;2022-07-29T11:59:25;32.17;35.53
67868;SHT31;54672;46.096;14.470;2022-07-29T12:01:56;32.01;35.71
67868;SHT31;54672;46.096;14.470;2022-07-29T12:04:21;32.03;35.50
67868;SHT31;54672;46.096;14.470;2022-07-29T12:06:53;32.00;36.09
67868;SHT31;54672;46.096;14.470;2022-07-29T12:09:19;32.13;36.28
67868;SHT31;54672;46.096;14.470;2022-07-29T12:11:46;32.07;36.49
67868;SHT31;54672;46.096;14.470;2022-07-29T12:14:44;32.27;36.54
67868;SHT31;54672;46.096;14.470;2022-07-29T12:17:31;32.49;36.36
67868;SHT31;54672;46.096;14.470;2022-07-29T12:19:59;32.59;35.77
67868;SHT31;54672;46.096;14.470;2022-07-29T12:24:51;32.72;35.92
67868;SHT31;54672;46.096;14.470;2022-07-29T12:27:17;32.73;35.83
67868;SHT31;54672;46.096;14.470;2022-07-29T12:29:42;32.72;35.91
67868;SHT31;54672;46.096;14.470;2022-07-29T12:32:08;32.86;35.41
67868;SHT31;54672;46.096;14.470;2022-07-29T12:34:34;32.89;34.86
67868;SHT31;54672;46.096;14.470;2022-07-29T12:37:00;33.02;34.47
67868;SHT31;54672;46.096;14.470;2022-07-29T12:39:26;33.10;34.88
67868;SHT31;54672;46.096;14.470;2022-07-29T12:41:53;33.33;35.04
67868;SHT31;54672;46.096;14.470;2022-07-29T12:44:19;33.57;34.78
67868;SHT31;54672;46.096;14.470;2022-07-29T12:46:44;33.27;34.77
67868;SHT31;54672;46.096;14.470;2022-07-29T12:49:21;32.93;36.19
67868;SHT31;54672;46.096;14.470;2022-07-29T12:51:46;33.12;35.64
67868;SHT31;54672;46.096;14.470;2022-07-29T12:54:15;33.13;35.64
67868;SHT31;54672;46.096;14.470;2022-07-29T12:56:43;33.27;35.33
67868;SHT31;54672;46.096;14.470;2022-07-29T12:59:20;33.17;35.42
67868;SHT31;54672;46.096;14.470;2022-07-29T13:01:47;33.24;35.26
67868;SHT31;54672;46.096;14.470;2022-07-29T13:04:31;33.09;35.36
67868;SHT31;54672;46.096;14.470;2022-07-29T13:07:02;33.30;35.19
67868;SHT31;54672;46.096;14.470;2022-07-29T13:09:42;33.33;34.75
67868;SHT31;54672;46.096;14.470;2022-07-29T13:12:09;33.06;35.40
67868;SHT31;54672;46.096;14.470;2022-07-29T13:17:05;32.89;35.62
67868;SHT31;54672;46.096;14.470;2022-07-29T13:19:45;33.03;35.89
67868;SHT31;54672;46.096;14.470;2022-07-29T13:22:13;33.26;35.32
67868;SHT31;54672;46.096;14.470;2022-07-29T13:27:15;33.27;34.83
67868;SHT31;54672;46.096;14.470;2022-07-29T13:29:41;33.30;34.92
67868;SHT31;54672;46.096;14.470;2022-07-29T13:32:06;33.31;35.02
67868;SHT31;54672;46.096;14.470;2022-07-29T13:34:32;33.19;35.46
67868;SHT31;54672;46.096;14.470;2022-07-29T13:36:58;33.31;35.10
67868;SHT31;54672;46.096;14.470;2022-07-29T13:39:23;33.26;35.51
67868;SHT31;54672;46.096;14.470;2022-07-29T13:41:48;33.34;35.21
67868;SHT31;54672;46.096;14.470;2022-07-29T13:44:14;33.33;34.80
67868;SHT31;54672;46.096;14.470;2022-07-29T13:46:40;33.12;35.55
67868;SHT31;54672;46.096;14.470;2022-07-29T13:49:05;33.03;35.52
67868;SHT31;54672;46.096;14.470;2022-07-29T13:51:30;32.83;35.63
67868;SHT31;54672;46.096;14.470;2022-07-29T13:53:56;32.75;36.14
67868;SHT31;54672;46.096;14.470;2022-07-29T13:56:21;33.00;36.01
67868;SHT31;54672;46.096;14.470;2022-07-29T13:58:46;33.12;35.95
67868;SHT31;54672;46.096;14.470;2022-07-29T14:01:12;33.20;35.33
67868;SHT31;54672;46.096;14.470;2022-07-29T14:03:37;33.17;35.48
67868;SHT31;54672;46.096;14.470;2022-07-29T14:06:06;33.20;35.14
67868;SHT31;54672;46.096;14.470;2022-07-29T14:08:32;33.19;35.49
67868;SHT31;54672;46.096;14.470;2022-07-29T14:10:57;33.24;35.34
67868;SHT31;54672;46.096;14.470;2022-07-29T14:13:22;33.26;35.08
67868;SHT31;54672;46.096;14.470;2022-07-29T14:15:48;33.34;35.96
67868;SHT31;54672;46.096;14.470;2022-07-29T14:18:13;33.26;36.20
67868;SHT31;54672;46.096;14.470;2022-07-29T14:20:39;33.23;35.63
67868;SHT31;54672;46.096;14.470;2022-07-29T14:23:04;33.21;35.93
67868;SHT31;54672;46.096;14.470;2022-07-29T14:25:29;33.26;35.53
67868;SHT31;54672;46.096;14.470;2022-07-29T14:27:55;33.26;35.48
67868;SHT31;54672;46.096;14.470;2022-07-29T14:30:20;33.09;35.59
67868;SHT31;54672;46.096;14.470;2022-07-29T14:32:46;33.31;35.68
67868;SHT31;54672;46.096;14.470;2022-07-29T14:35:11;33.46;35.60
67868;SHT31;54672;46.096;14.470;2022-07-29T14:37:37;33.40;35.57
67868;SHT31;54672;46.096;14.470;2022-07-29T14:40:03;33.50;35.52
67868;SHT31;54672;46.096;14.470;2022-07-29T14:42:30;33.44;35.95
67868;SHT31;54672;46.096;14.470;2022-07-29T14:44:58;33.39;35.75
67868;SHT31;54672;46.096;14.470;2022-07-29T14:47:23;33.53;36.17
67868;SHT31;54672;46.096;14.470;2022-07-29T14:49:49;33.49;35.42
67868;SHT31;54672;46.096;14.470;2022-07-29T14:52:14;33.60;35.03
67868;SHT31;54672;46.096;14.470;2022-07-29T14:54:40;33.54;35.27
67868;SHT31;54672;46.096;14.470;2022-07-29T14:57:05;33.81;35.32
67868;SHT31;54672;46.096;14.470;2022-07-29T14:59:31;33.91;34.98
67868;SHT31;54672;46.096;14.470;2022-07-29T15:01:56;33.87;35.64
67868;SHT31;54672;46.096;14.470;2022-07-29T15:04:21;33.84;35.25
67868;SHT31;54672;46.096;14.470;2022-07-29T15:06:47;33.85;35.35
67868;SHT31;54672;46.096;14.470;2022-07-29T15:09:12;33.72;35.67
67868;SHT31;54672;46.096;14.470;2022-07-29T15:11:38;33.58;35.25
67868;SHT31;54672;46.096;14.470;2022-07-29T15:14:03;33.60;35.81
67868;SHT31;54672;46.096;14.470;2022-07-29T15:16:29;33.51;35.89
67868;SHT31;54672;46.096;14.470;2022-07-29T15:18:56;33.41;36.36
67868;SHT31;54672;46.096;14.470;2022-07-29T15:21:23;33.33;36.51
67868;SHT31;54672;46.096;14.470;2022-07-29T15:23:48;33.16;36.84
67868;SHT31;54672;46.096;14.470;2022-07-29T15:26:14;32.87;37.35
67868;SHT31;54672;46.096;14.470;2022-07-29T15:28:39;32.55;38.76
67868;SHT31;54672;46.096;14.470;2022-07-29T15:31:05;32.43;39.37
67868;SHT31;54672;46.096;14.470;2022-07-29T15:33:31;32.43;39.44
67868;SHT31;54672;46.096;14.470;2022-07-29T15:35:56;32.22;39.59
67868;SHT31;54672;46.096;14.470;2022-07-29T15:38:22;31.90;40.16
67868;SHT31;54672;46.096;14.470;2022-07-29T15:40:47;31.66;40.86
67868;SHT31;54672;46.096;14.470;2022-07-29T15:43:13;31.50;41.47
67868;SHT31;54672;46.096;14.470;2022-07-29T15:45:40;31.53;41.97
67868;SHT31;54672;46.096;14.470;2022-07-29T15:48:07;31.56;42.12
67868;SHT31;54672;46.096;14.470;2022-07-29T15:50:33;31.56;42.27
67868;SHT31;54672;46.096;14.470;2022-07-29T15:52:59;31.59;42.20
67868;SHT31;54672;46.096;14.470;2022-07-29T15:55:25;31.56;42.32
67868;SHT31;54672;46.096;14.470;2022-07-29T15:57:50;31.56;42.40
67868;SHT31;54672;46.096;14.470;2022-07-29T16:00:16;31.37;42.63
67868;SHT31;54672;46.096;14.470;2022-07-29T16:02:43;31.09;43.30
67868;SHT31;54672;46.096;14.470;2022-07-29T16:05:09;30.86;43.53
67868;SHT31;54672;46.096;14.470;2022-07-29T16:07:34;30.78;43.75
67868;SHT31;54672;46.096;14.470;2022-07-29T16:10:00;30.60;44.14
67868;SHT31;54672;46.096;14.470;2022-07-29T16:12:25;30.40;44.72
67868;SHT31;54672;46.096;14.470;2022-07-29T16:14:50;30.33;44.72
67868;SHT31;54672;46.096;14.470;2022-07-29T16:17:16;30.23;44.68